sensor_id;sensor_type;location;lat;lon;timestamp;P1;durP1;ratioP1;P2;durP2;ratioP2
21569;SDS011;57598;50.888;4.746;2023-05-02T00:01:19;67.47;;;60.13;;
21569;SDS011;57598;50.888;4.746;2023-05-02T00:03:46;62.38;;;56.65;;
21569;SDS011;57598;50.888;4.746;2023-05-02T00:06:14;74.28;;;62.47;;
21569;SDS011;57598;50.888;4.746;2023-05-02T00:08:41;69.72;;;63.03;;
21569;SDS011;57598;50.888;4.746;2023-05-02T00:11:09;80.22;;;68.28;;
21569;SDS011;57598;50.888;4.746;2023-05-02T00:13:36;68.63;;;62.10;;
21569;SDS011;57598;50.888;4.746;2023-05-02T00:16:03;63.97;;;58.33;;
21569;SDS011;57598;50.888;4.746;2023-05-02T00:18:31;66.50;;;60.50;;
21569;SDS011;57598;50.888;4.746;2023-05-02T00:20:58;66.85;;;60.55;;
21569;SDS011;57598;50.888;4.746;2023-05-02T00:23:25;66.68;;;60.40;;
21569;SDS011;57598;50.888;4.746;2023-05-02T00:25:52;74.25;;;66.50;;
21569;SDS011;57598;50.888;4.746;2023-05-02T00:28:20;73.45;;;64.22;;
21569;SDS011;57598;50.888;4.746;2023-05-02T00:30:47;68.65;;;61.50;;
21569;SDS011;57598;50.888;4.746;2023-05-02T00:33:14;76.63;;;65.97;;
21569;SDS011;57598;50.888;4.746;2023-05-02T00:35:41;80.43;;;69.97;;
21569;SDS011;57598;50.888;4.746;2023-05-02T00:38:08;76.95;;;68.30;;
21569;SDS011;57598;50.888;4.746;2023-05-02T00:40:41;75.80;;;65.70;;
21569;SDS011;57598;50.888;4.746;2023-05-02T00:43:10;71.47;;;64.25;;
21569;SDS011;57598;50.888;4.746;2023-05-02T00:45:38;64.93;;;58.13;;
21569;SDS011;57598;50.888;4.746;2023-05-02T00:48:07;70.88;;;63.40;;
21569;SDS011;57598;50.888;4.746;2023-05-02T00:50:35;71.60;;;64.00;;
21569;SDS011;57598;50.888;4.746;2023-05-02T00:53:04;77.72;;;68.20;;
21569;SDS011;57598;50.888;4.746;2023-05-02T00:55:32;73.65;;;65.85;;
21569;SDS011;57598;50.888;4.746;2023-05-02T00:57:59;71.45;;;64.05;;
21569;SDS011;57598;50.888;4.746;2023-05-02T01:00:30;80.65;;;70.03;;
21569;SDS011;57598;50.888;4.746;2023-05-02T01:03:09;84.75;;;65.40;;
21569;SDS011;57598;50.888;4.746;2023-05-02T01:05:47;91.07;;;74.10;;
21569;SDS011;57598;50.888;4.746;2023-05-02T01:08:23;74.72;;;66.57;;
21569;SDS011;57598;50.888;4.746;2023-05-02T01:10:58;81.40;;;69.35;;
21569;SDS011;57598;50.888;4.746;2023-05-02T01:13:31;86.90;;;70.13;;
21569;SDS011;57598;50.888;4.746;2023-05-02T01:16:00;89.00;;;75.47;;
21569;SDS011;57598;50.888;4.746;2023-05-02T01:18:31;68.25;;;61.35;;
21569;SDS011;57598;50.888;4.746;2023-05-02T01:21:02;74.53;;;61.65;;
21569;SDS011;57598;50.888;4.746;2023-05-02T01:26:08;70.20;;;63.13;;
21569;SDS011;57598;50.888;4.746;2023-05-02T01:31:34;76.57;;;68.05;;
21569;SDS011;57598;50.888;4.746;2023-05-02T01:34:03;66.15;;;59.75;;
21569;SDS011;57598;50.888;4.746;2023-05-02T01:36:34;65.07;;;58.53;;
21569;SDS011;57598;50.888;4.746;2023-05-02T01:39:04;89.40;;;72.30;;
21569;SDS011;57598;50.888;4.746;2023-05-02T01:41:34;73.20;;;65.65;;
21569;SDS011;57598;50.888;4.746;2023-05-02T01:44:04;83.50;;;67.47;;
21569;SDS011;57598;50.888;4.746;2023-05-02T01:46:34;73.70;;;65.80;;
21569;SDS011;57598;50.888;4.746;2023-05-02T01:49:04;83.60;;;69.80;;
21569;SDS011;57598;50.888;4.746;2023-05-02T01:51:34;74.22;;;66.28;;
21569;SDS011;57598;50.888;4.746;2023-05-02T01:54:04;74.20;;;66.10;;
21569;SDS011;57598;50.888;4.746;2023-05-02T01:56:34;96.50;;;74.32;;
21569;SDS011;57598;50.888;4.746;2023-05-02T01:59:05;64.82;;;58.17;;
21569;SDS011;57598;50.888;4.746;2023-05-02T02:04:03;63.60;;;57.40;;
21569;SDS011;57598;50.888;4.746;2023-05-02T02:06:31;68.93;;;62.08;;
21569;SDS011;57598;50.888;4.746;2023-05-02T02:08:58;65.57;;;59.28;;
21569;SDS011;57598;50.888;4.746;2023-05-02T02:11:36;70.90;;;63.50;;
21569;SDS011;57598;50.888;4.746;2023-05-02T02:14:11;64.72;;;58.22;;
21569;SDS011;57598;50.888;4.746;2023-05-02T02:16:43;66.38;;;59.78;;
21569;SDS011;57598;50.888;4.746;2023-05-02T02:19:12;61.38;;;55.20;;
21569;SDS011;57598;50.888;4.746;2023-05-02T02:21:41;70.53;;;63.03;;
21569;SDS011;57598;50.888;4.746;2023-05-02T02:24:09;71.80;;;64.28;;
21569;SDS011;57598;50.888;4.746;2023-05-02T02:26:38;63.70;;;57.50;;
21569;SDS011;57598;50.888;4.746;2023-05-02T02:29:05;72.65;;;64.80;;
21569;SDS011;57598;50.888;4.746;2023-05-02T02:31:34;75.03;;;66.97;;
21569;SDS011;57598;50.888;4.746;2023-05-02T02:34:03;64.07;;;57.78;;
21569;SDS011;57598;50.888;4.746;2023-05-02T02:36:32;77.38;;;69.15;;
21569;SDS011;57598;50.888;4.746;2023-05-02T02:39:03;74.32;;;66.70;;
21569;SDS011;57598;50.888;4.746;2023-05-02T02:41:39;79.28;;;66.18;;
21569;SDS011;57598;50.888;4.746;2023-05-02T02:44:13;75.97;;;66.32;;
21569;SDS011;57598;50.888;4.746;2023-05-02T02:46:49;63.17;;;57.05;;
21569;SDS011;57598;50.888;4.746;2023-05-02T02:49:30;73.40;;;63.03;;
21569;SDS011;57598;50.888;4.746;2023-05-02T02:52:02;96.38;;;70.68;;
21569;SDS011;57598;50.888;4.746;2023-05-02T02:54:36;63.10;;;57.00;;
21569;SDS011;57598;50.888;4.746;2023-05-02T02:57:13;64.72;;;58.45;;
21569;SDS011;57598;50.888;4.746;2023-05-02T02:59:45;72.32;;;64.50;;
21569;SDS011;57598;50.888;4.746;2023-05-02T03:02:17;70.30;;;63.10;;
21569;SDS011;57598;50.888;4.746;2023-05-02T03:04:48;72.60;;;64.72;;
21569;SDS011;57598;50.888;4.746;2023-05-02T03:07:18;62.15;;;56.17;;
21569;SDS011;57598;50.888;4.746;2023-05-02T03:09:45;67.45;;;61.08;;
21569;SDS011;57598;50.888;4.746;2023-05-02T03:12:13;68.82;;;62.03;;
21569;SDS011;57598;50.888;4.746;2023-05-02T03:14:40;64.47;;;57.88;;
21569;SDS011;57598;50.888;4.746;2023-05-02T03:17:07;66.70;;;60.15;;
21569;SDS011;57598;50.888;4.746;2023-05-02T03:19:36;82.28;;;72.47;;
21569;SDS011;57598;50.888;4.746;2023-05-02T03:22:03;62.83;;;56.72;;
21569;SDS011;57598;50.888;4.746;2023-05-02T03:24:30;63.35;;;57.20;;
21569;SDS011;57598;50.888;4.746;2023-05-02T03:26:57;68.63;;;61.60;;
21569;SDS011;57598;50.888;4.746;2023-05-02T03:29:24;61.67;;;55.63;;
21569;SDS011;57598;50.888;4.746;2023-05-02T03:31:52;72.55;;;65.15;;
21569;SDS011;57598;50.888;4.746;2023-05-02T03:34:19;67.07;;;60.58;;
21569;SDS011;57598;50.888;4.746;2023-05-02T03:36:48;63.67;;;57.50;;
21569;SDS011;57598;50.888;4.746;2023-05-02T03:39:15;65.22;;;58.63;;
21569;SDS011;57598;50.888;4.746;2023-05-02T03:41:42;65.47;;;58.72;;
21569;SDS011;57598;50.888;4.746;2023-05-02T03:44:09;62.53;;;56.13;;
21569;SDS011;57598;50.888;4.746;2023-05-02T03:46:36;62.65;;;56.72;;
21569;SDS011;57598;50.888;4.746;2023-05-02T03:49:03;64.05;;;57.42;;
21569;SDS011;57598;50.888;4.746;2023-05-02T03:51:30;61.25;;;55.25;;
21569;SDS011;57598;50.888;4.746;2023-05-02T03:54:00;62.13;;;56.38;;
21569;SDS011;57598;50.888;4.746;2023-05-02T03:56:27;61.08;;;55.33;;
21569;SDS011;57598;50.888;4.746;2023-05-02T03:58:54;58.60;;;53.00;;
21569;SDS011;57598;50.888;4.746;2023-05-02T04:01:22;59.85;;;54.03;;
21569;SDS011;57598;50.888;4.746;2023-05-02T04:03:49;62.45;;;56.40;;
21569;SDS011;57598;50.888;4.746;2023-05-02T04:06:17;61.00;;;55.40;;
21569;SDS011;57598;50.888;4.746;2023-05-02T04:08:44;62.08;;;56.28;;
21569;SDS011;57598;50.888;4.746;2023-05-02T04:11:12;58.70;;;53.22;;
21569;SDS011;57598;50.888;4.746;2023-05-02T04:13:40;58.50;;;52.90;;
21569;SDS011;57598;50.888;4.746;2023-05-02T04:16:07;59.97;;;54.45;;
21569;SDS011;57598;50.888;4.746;2023-05-02T04:18:34;61.60;;;55.70;;
21569;SDS011;57598;50.888;4.746;2023-05-02T04:21:02;63.15;;;57.25;;
21569;SDS011;57598;50.888;4.746;2023-05-02T04:23:29;63.60;;;57.60;;
21569;SDS011;57598;50.888;4.746;2023-05-02T04:25:56;57.22;;;52.17;;
21569;SDS011;57598;50.888;4.746;2023-05-02T04:28:24;62.35;;;56.95;;
21569;SDS011;57598;50.888;4.746;2023-05-02T04:30:51;61.78;;;56.28;;
21569;SDS011;57598;50.888;4.746;2023-05-02T04:33:18;61.13;;;55.92;;
21569;SDS011;57598;50.888;4.746;2023-05-02T04:35:45;60.60;;;55.60;;
21569;SDS011;57598;50.888;4.746;2023-05-02T04:38:12;62.25;;;56.72;;
21569;SDS011;57598;50.888;4.746;2023-05-02T04:40:40;57.85;;;52.88;;
21569;SDS011;57598;50.888;4.746;2023-05-02T04:43:07;58.72;;;53.63;;
21569;SDS011;57598;50.888;4.746;2023-05-02T04:45:35;57.08;;;52.28;;
21569;SDS011;57598;50.888;4.746;2023-05-02T04:48:02;57.50;;;52.45;;
21569;SDS011;57598;50.888;4.746;2023-05-02T04:50:30;57.85;;;52.75;;
21569;SDS011;57598;50.888;4.746;2023-05-02T04:52:57;61.30;;;56.10;;
21569;SDS011;57598;50.888;4.746;2023-05-02T04:55:24;57.38;;;52.47;;
21569;SDS011;57598;50.888;4.746;2023-05-02T04:57:51;60.58;;;55.53;;
21569;SDS011;57598;50.888;4.746;2023-05-02T05:00:18;57.17;;;52.28;;
21569;SDS011;57598;50.888;4.746;2023-05-02T05:02:47;64.07;;;58.40;;
21569;SDS011;57598;50.888;4.746;2023-05-02T05:05:14;58.95;;;54.15;;
21569;SDS011;57598;50.888;4.746;2023-05-02T05:07:41;59.33;;;54.25;;
21569;SDS011;57598;50.888;4.746;2023-05-02T05:10:09;61.75;;;56.30;;
21569;SDS011;57598;50.888;4.746;2023-05-02T05:12:36;57.92;;;53.17;;
21569;SDS011;57598;50.888;4.746;2023-05-02T05:15:03;57.35;;;52.70;;
21569;SDS011;57598;50.888;4.746;2023-05-02T05:17:31;57.25;;;52.25;;
21569;SDS011;57598;50.888;4.746;2023-05-02T05:20:00;58.83;;;54.05;;
21569;SDS011;57598;50.888;4.746;2023-05-02T05:22:27;58.22;;;53.53;;
21569;SDS011;57598;50.888;4.746;2023-05-02T05:24:54;61.97;;;56.55;;
21569;SDS011;57598;50.888;4.746;2023-05-02T05:27:21;58.78;;;54.08;;
21569;SDS011;57598;50.888;4.746;2023-05-02T05:29:48;55.90;;;51.35;;
21569;SDS011;57598;50.888;4.746;2023-05-02T05:32:15;59.63;;;54.83;;
21569;SDS011;57598;50.888;4.746;2023-05-02T05:34:42;59.53;;;54.15;;
21569;SDS011;57598;50.888;4.746;2023-05-02T05:37:10;59.00;;;54.15;;
21569;SDS011;57598;50.888;4.746;2023-05-02T05:39:37;57.13;;;52.60;;
21569;SDS011;57598;50.888;4.746;2023-05-02T05:42:04;60.38;;;55.15;;
21569;SDS011;57598;50.888;4.746;2023-05-02T05:44:34;56.33;;;52.03;;
21569;SDS011;57598;50.888;4.746;2023-05-02T05:47:01;60.03;;;55.40;;
21569;SDS011;57598;50.888;4.746;2023-05-02T05:49:28;55.10;;;50.80;;
21569;SDS011;57598;50.888;4.746;2023-05-02T05:51:55;56.40;;;52.10;;
21569;SDS011;57598;50.888;4.746;2023-05-02T05:54:23;59.90;;;54.90;;
21569;SDS011;57598;50.888;4.746;2023-05-02T05:56:50;61.70;;;56.35;;
21569;SDS011;57598;50.888;4.746;2023-05-02T05:59:17;62.65;;;57.55;;
21569;SDS011;57598;50.888;4.746;2023-05-02T06:01:44;60.30;;;55.45;;
21569;SDS011;57598;50.888;4.746;2023-05-02T06:04:11;54.63;;;50.42;;
21569;SDS011;57598;50.888;4.746;2023-05-02T06:06:38;58.78;;;54.17;;
21569;SDS011;57598;50.888;4.746;2023-05-02T06:09:05;59.88;;;55.42;;
21569;SDS011;57598;50.888;4.746;2023-05-02T06:11:35;55.72;;;51.38;;
21569;SDS011;57598;50.888;4.746;2023-05-02T06:14:02;61.15;;;56.03;;
21569;SDS011;57598;50.888;4.746;2023-05-02T06:16:29;62.00;;;56.72;;
21569;SDS011;57598;50.888;4.746;2023-05-02T06:18:56;55.03;;;50.83;;
21569;SDS011;57598;50.888;4.746;2023-05-02T06:21:23;56.42;;;51.67;;
21569;SDS011;57598;50.888;4.746;2023-05-02T06:23:50;54.95;;;50.75;;
21569;SDS011;57598;50.888;4.746;2023-05-02T06:26:17;55.40;;;51.10;;
21569;SDS011;57598;50.888;4.746;2023-05-02T06:28:47;61.20;;;55.60;;
21569;SDS011;57598;50.888;4.746;2023-05-02T06:31:14;56.55;;;52.05;;
21569;SDS011;57598;50.888;4.746;2023-05-02T06:33:41;53.17;;;49.05;;
21569;SDS011;57598;50.888;4.746;2023-05-02T06:36:08;58.10;;;52.92;;
21569;SDS011;57598;50.888;4.746;2023-05-02T06:38:35;54.45;;;50.08;;
21569;SDS011;57598;50.888;4.746;2023-05-02T06:41:02;55.00;;;50.80;;
21569;SDS011;57598;50.888;4.746;2023-05-02T06:43:29;54.88;;;50.67;;
21569;SDS011;57598;50.888;4.746;2023-05-02T06:45:59;55.88;;;51.35;;
21569;SDS011;57598;50.888;4.746;2023-05-02T06:48:26;54.80;;;50.70;;
21569;SDS011;57598;50.888;4.746;2023-05-02T06:50:53;56.20;;;52.10;;
21569;SDS011;57598;50.888;4.746;2023-05-02T06:53:20;54.13;;;50.22;;
21569;SDS011;57598;50.888;4.746;2023-05-02T06:55:47;53.15;;;49.08;;
21569;SDS011;57598;50.888;4.746;2023-05-02T06:58:15;50.58;;;47.03;;
21569;SDS011;57598;50.888;4.746;2023-05-02T07:00:42;49.70;;;46.15;;
21569;SDS011;57598;50.888;4.746;2023-05-02T07:03:10;47.70;;;44.40;;
21569;SDS011;57598;50.888;4.746;2023-05-02T07:05:37;45.92;;;42.83;;
21569;SDS011;57598;50.888;4.746;2023-05-02T07:08:05;44.60;;;41.60;;
21569;SDS011;57598;50.888;4.746;2023-05-02T07:10:33;43.20;;;40.30;;
21569;SDS011;57598;50.888;4.746;2023-05-02T07:13:01;41.20;;;38.60;;
21569;SDS011;57598;50.888;4.746;2023-05-02T07:15:28;42.42;;;39.67;;
21569;SDS011;57598;50.888;4.746;2023-05-02T07:17:55;39.10;;;36.63;;
21569;SDS011;57598;50.888;4.746;2023-05-02T07:20:23;35.58;;;33.47;;
21569;SDS011;57598;50.888;4.746;2023-05-02T07:22:50;35.90;;;33.80;;
21569;SDS011;57598;50.888;4.746;2023-05-02T07:25:17;35.55;;;33.45;;
21569;SDS011;57598;50.888;4.746;2023-05-02T07:27:44;32.40;;;30.60;;
21569;SDS011;57598;50.888;4.746;2023-05-02T07:30:12;27.10;;;25.60;;
21569;SDS011;57598;50.888;4.746;2023-05-02T07:32:39;25.40;;;24.00;;
21569;SDS011;57598;50.888;4.746;2023-05-02T07:35:06;23.58;;;22.25;;
21569;SDS011;57598;50.888;4.746;2023-05-02T07:37:35;22.85;;;21.33;;
21569;SDS011;57598;50.888;4.746;2023-05-02T07:40:02;20.45;;;19.30;;
21569;SDS011;57598;50.888;4.746;2023-05-02T07:42:31;20.33;;;19.17;;
21569;SDS011;57598;50.888;4.746;2023-05-02T07:44:58;20.50;;;19.38;;
21569;SDS011;57598;50.888;4.746;2023-05-02T07:47:26;19.10;;;18.00;;
21569;SDS011;57598;50.888;4.746;2023-05-02T07:49:53;19.92;;;18.73;;
21569;SDS011;57598;50.888;4.746;2023-05-02T07:52:21;19.92;;;18.73;;
21569;SDS011;57598;50.888;4.746;2023-05-02T07:54:49;19.50;;;18.40;;
21569;SDS011;57598;50.888;4.746;2023-05-02T07:57:17;18.55;;;17.45;;
21569;SDS011;57598;50.888;4.746;2023-05-02T07:59:44;17.98;;;16.92;;
21569;SDS011;57598;50.888;4.746;2023-05-02T08:02:11;19.80;;;18.33;;
21569;SDS011;57598;50.888;4.746;2023-05-02T08:04:38;18.40;;;17.30;;
21569;SDS011;57598;50.888;4.746;2023-05-02T08:07:06;18.65;;;17.55;;
21569;SDS011;57598;50.888;4.746;2023-05-02T08:09:33;20.25;;;18.95;;
21569;SDS011;57598;50.888;4.746;2023-05-02T08:12:01;19.30;;;17.70;;
21569;SDS011;57598;50.888;4.746;2023-05-02T08:14:28;18.83;;;17.73;;
21569;SDS011;57598;50.888;4.746;2023-05-02T08:16:55;18.52;;;17.42;;
21569;SDS011;57598;50.888;4.746;2023-05-02T08:19:22;19.58;;;18.25;;
21569;SDS011;57598;50.888;4.746;2023-05-02T08:21:49;18.05;;;16.95;;
21569;SDS011;57598;50.888;4.746;2023-05-02T08:24:18;18.90;;;17.58;;
21569;SDS011;57598;50.888;4.746;2023-05-02T08:26:45;18.98;;;17.88;;
21569;SDS011;57598;50.888;4.746;2023-05-02T08:29:14;18.90;;;17.80;;
21569;SDS011;57598;50.888;4.746;2023-05-02T08:31:41;18.63;;;17.52;;
21569;SDS011;57598;50.888;4.746;2023-05-02T08:34:08;17.92;;;16.50;;
21569;SDS011;57598;50.888;4.746;2023-05-02T08:36:35;18.40;;;17.30;;
21569;SDS011;57598;50.888;4.746;2023-05-02T08:39:02;18.60;;;17.50;;
21569;SDS011;57598;50.888;4.746;2023-05-02T08:41:31;19.02;;;17.92;;
21569;SDS011;57598;50.888;4.746;2023-05-02T08:43:58;20.60;;;19.30;;
21569;SDS011;57598;50.888;4.746;2023-05-02T08:46:27;40.05;;;19.30;;
21569;SDS011;57598;50.888;4.746;2023-05-02T08:48:56;18.17;;;17.05;;
21569;SDS011;57598;50.888;4.746;2023-05-02T08:51:24;17.83;;;16.73;;
21569;SDS011;57598;50.888;4.746;2023-05-02T08:53:52;17.83;;;16.83;;
21569;SDS011;57598;50.888;4.746;2023-05-02T08:56:21;17.65;;;16.63;;
21569;SDS011;57598;50.888;4.746;2023-05-02T08:58:49;22.25;;;16.92;;
21569;SDS011;57598;50.888;4.746;2023-05-02T09:01:16;17.98;;;16.88;;
21569;SDS011;57598;50.888;4.746;2023-05-02T09:03:47;17.23;;;16.23;;
21569;SDS011;57598;50.888;4.746;2023-05-02T09:06:14;18.10;;;17.10;;
21569;SDS011;57598;50.888;4.746;2023-05-02T09:08:43;18.63;;;17.42;;
21569;SDS011;57598;50.888;4.746;2023-05-02T09:11:13;18.25;;;17.08;;
21569;SDS011;57598;50.888;4.746;2023-05-02T09:13:41;20.35;;;18.92;;
21569;SDS011;57598;50.888;4.746;2023-05-02T09:16:10;18.98;;;17.55;;
21569;SDS011;57598;50.888;4.746;2023-05-02T09:18:40;18.90;;;17.60;;
21569;SDS011;57598;50.888;4.746;2023-05-02T09:21:11;19.45;;;18.00;;
21569;SDS011;57598;50.888;4.746;2023-05-02T09:23:41;20.40;;;18.70;;
21569;SDS011;57598;50.888;4.746;2023-05-02T09:26:18;17.10;;;16.10;;
21569;SDS011;57598;50.888;4.746;2023-05-02T09:28:47;18.38;;;17.27;;
21569;SDS011;57598;50.888;4.746;2023-05-02T09:31:16;17.48;;;16.45;;
21569;SDS011;57598;50.888;4.746;2023-05-02T09:33:44;18.00;;;16.90;;
21569;SDS011;57598;50.888;4.746;2023-05-02T09:36:14;19.75;;;18.35;;
21569;SDS011;57598;50.888;4.746;2023-05-02T09:38:42;18.85;;;17.75;;
21569;SDS011;57598;50.888;4.746;2023-05-02T09:41:10;18.33;;;17.23;;
21569;SDS011;57598;50.888;4.746;2023-05-02T09:43:37;18.48;;;17.38;;
21569;SDS011;57598;50.888;4.746;2023-05-02T09:46:05;19.13;;;17.67;;
21569;SDS011;57598;50.888;4.746;2023-05-02T09:48:50;17.73;;;16.73;;
21569;SDS011;57598;50.888;4.746;2023-05-02T09:51:20;16.60;;;15.60;;
21569;SDS011;57598;50.888;4.746;2023-05-02T09:53:48;17.23;;;16.23;;
21569;SDS011;57598;50.888;4.746;2023-05-02T09:56:15;20.08;;;18.65;;
21569;SDS011;57598;50.888;4.746;2023-05-02T09:58:43;19.23;;;18.02;;
21569;SDS011;57598;50.888;4.746;2023-05-02T10:01:13;17.70;;;16.70;;
21569;SDS011;57598;50.888;4.746;2023-05-02T10:03:41;19.40;;;18.27;;
21569;SDS011;57598;50.888;4.746;2023-05-02T10:06:10;18.35;;;17.25;;
21569;SDS011;57598;50.888;4.746;2023-05-02T10:08:39;18.42;;;17.33;;
21569;SDS011;57598;50.888;4.746;2023-05-02T10:11:09;18.15;;;17.05;;
21569;SDS011;57598;50.888;4.746;2023-05-02T10:13:38;17.67;;;16.67;;
21569;SDS011;57598;50.888;4.746;2023-05-02T10:16:06;17.80;;;16.77;;
21569;SDS011;57598;50.888;4.746;2023-05-02T10:18:37;19.60;;;18.40;;
21569;SDS011;57598;50.888;4.746;2023-05-02T10:23:35;18.58;;;17.48;;
21569;SDS011;57598;50.888;4.746;2023-05-02T10:26:09;18.13;;;16.67;;
21569;SDS011;57598;50.888;4.746;2023-05-02T10:28:37;17.95;;;16.95;;
21569;SDS011;57598;50.888;4.746;2023-05-02T10:31:08;19.80;;;18.55;;
21569;SDS011;57598;50.888;4.746;2023-05-02T10:33:35;18.73;;;17.63;;
21569;SDS011;57598;50.888;4.746;2023-05-02T10:36:04;19.92;;;18.27;;
21569;SDS011;57598;50.888;4.746;2023-05-02T10:38:34;20.63;;;19.35;;
21569;SDS011;57598;50.888;4.746;2023-05-02T10:41:08;17.70;;;16.60;;
21569;SDS011;57598;50.888;4.746;2023-05-02T10:43:40;18.02;;;16.92;;
21569;SDS011;57598;50.888;4.746;2023-05-02T10:46:30;19.25;;;18.02;;
21569;SDS011;57598;50.888;4.746;2023-05-02T10:48:59;19.48;;;17.70;;
21569;SDS011;57598;50.888;4.746;2023-05-02T10:51:27;18.02;;;17.02;;
21569;SDS011;57598;50.888;4.746;2023-05-02T10:57:02;19.63;;;18.23;;
21569;SDS011;57598;50.888;4.746;2023-05-02T10:59:32;19.50;;;18.30;;
21569;SDS011;57598;50.888;4.746;2023-05-02T11:02:00;19.63;;;18.15;;
21569;SDS011;57598;50.888;4.746;2023-05-02T11:07:26;18.23;;;17.13;;
21569;SDS011;57598;50.888;4.746;2023-05-02T11:10:09;20.05;;;18.75;;
21569;SDS011;57598;50.888;4.746;2023-05-02T11:12:53;19.63;;;18.42;;
21569;SDS011;57598;50.888;4.746;2023-05-02T11:18:23;18.33;;;17.23;;
21569;SDS011;57598;50.888;4.746;2023-05-02T11:20:50;18.35;;;17.25;;
21569;SDS011;57598;50.888;4.746;2023-05-02T11:23:18;18.90;;;17.50;;
21569;SDS011;57598;50.888;4.746;2023-05-02T11:25:50;19.83;;;18.17;;
21569;SDS011;57598;50.888;4.746;2023-05-02T11:31:06;17.67;;;16.67;;
21569;SDS011;57598;50.888;4.746;2023-05-02T11:33:35;17.42;;;16.42;;
21569;SDS011;57598;50.888;4.746;2023-05-02T11:36:02;18.95;;;17.85;;
21569;SDS011;57598;50.888;4.746;2023-05-02T11:38:34;17.67;;;16.58;;
21569;SDS011;57598;50.888;4.746;2023-05-02T11:41:03;18.50;;;17.40;;
21569;SDS011;57598;50.888;4.746;2023-05-02T11:43:30;18.80;;;17.70;;
21569;SDS011;57598;50.888;4.746;2023-05-02T11:45:59;18.08;;;17.08;;
21569;SDS011;57598;50.888;4.746;2023-05-02T11:48:29;18.20;;;17.10;;
21569;SDS011;57598;50.888;4.746;2023-05-02T11:50:57;17.25;;;16.25;;
21569;SDS011;57598;50.888;4.746;2023-05-02T11:53:27;16.88;;;15.88;;
21569;SDS011;57598;50.888;4.746;2023-05-02T11:55:56;17.92;;;16.92;;
21569;SDS011;57598;50.888;4.746;2023-05-02T11:58:24;17.60;;;16.60;;
21569;SDS011;57598;50.888;4.746;2023-05-02T12:00:53;18.30;;;17.30;;
21569;SDS011;57598;50.888;4.746;2023-05-02T12:03:32;18.20;;;17.10;;
21569;SDS011;57598;50.888;4.746;2023-05-02T12:06:07;18.40;;;17.00;;
21569;SDS011;57598;50.888;4.746;2023-05-02T12:08:35;17.00;;;16.00;;
21569;SDS011;57598;50.888;4.746;2023-05-02T12:11:03;18.25;;;17.23;;
21569;SDS011;57598;50.888;4.746;2023-05-02T12:13:30;19.33;;;18.10;;
21569;SDS011;57598;50.888;4.746;2023-05-02T12:15:58;18.35;;;17.25;;
21569;SDS011;57598;50.888;4.746;2023-05-02T12:18:25;17.45;;;16.45;;
21569;SDS011;57598;50.888;4.746;2023-05-02T12:20:54;19.23;;;18.08;;
21569;SDS011;57598;50.888;4.746;2023-05-02T12:23:23;18.10;;;17.10;;
21569;SDS011;57598;50.888;4.746;2023-05-02T12:25:51;21.17;;;19.88;;
21569;SDS011;57598;50.888;4.746;2023-05-02T12:28:19;18.70;;;17.60;;
21569;SDS011;57598;50.888;4.746;2023-05-02T12:30:48;17.48;;;16.40;;
21569;SDS011;57598;50.888;4.746;2023-05-02T12:33:16;19.55;;;18.35;;
21569;SDS011;57598;50.888;4.746;2023-05-02T12:35:43;19.55;;;18.35;;
21569;SDS011;57598;50.888;4.746;2023-05-02T12:38:14;18.15;;;17.15;;
21569;SDS011;57598;50.888;4.746;2023-05-02T12:40:46;20.63;;;19.13;;
21569;SDS011;57598;50.888;4.746;2023-05-02T12:43:14;19.67;;;18.05;;
21569;SDS011;57598;50.888;4.746;2023-05-02T12:45:42;19.10;;;17.63;;
21569;SDS011;57598;50.888;4.746;2023-05-02T12:48:18;18.95;;;17.85;;
21569;SDS011;57598;50.888;4.746;2023-05-02T12:50:46;18.38;;;17.33;;
21569;SDS011;57598;50.888;4.746;2023-05-02T12:53:15;17.88;;;16.77;;
21569;SDS011;57598;50.888;4.746;2023-05-02T12:55:42;18.40;;;17.30;;
21569;SDS011;57598;50.888;4.746;2023-05-02T12:58:11;19.10;;;17.70;;
21569;SDS011;57598;50.888;4.746;2023-05-02T13:00:39;19.52;;;18.35;;
21569;SDS011;57598;50.888;4.746;2023-05-02T13:03:07;20.40;;;18.45;;
21569;SDS011;57598;50.888;4.746;2023-05-02T13:05:35;18.70;;;17.60;;
21569;SDS011;57598;50.888;4.746;2023-05-02T13:08:02;20.85;;;19.10;;
21569;SDS011;57598;50.888;4.746;2023-05-02T13:10:31;19.95;;;18.55;;
21569;SDS011;57598;50.888;4.746;2023-05-02T13:12:58;20.58;;;19.08;;
21569;SDS011;57598;50.888;4.746;2023-05-02T13:15:25;20.48;;;19.02;;
21569;SDS011;57598;50.888;4.746;2023-05-02T13:17:52;18.67;;;17.48;;
21569;SDS011;57598;50.888;4.746;2023-05-02T13:20:19;18.52;;;17.38;;
21569;SDS011;57598;50.888;4.746;2023-05-02T13:22:46;18.88;;;17.75;;
21569;SDS011;57598;50.888;4.746;2023-05-02T13:25:13;18.92;;;17.73;;
21569;SDS011;57598;50.888;4.746;2023-05-02T13:27:42;19.13;;;17.83;;
21569;SDS011;57598;50.888;4.746;2023-05-02T13:30:10;19.38;;;18.08;;
21569;SDS011;57598;50.888;4.746;2023-05-02T13:32:37;17.38;;;16.38;;
21569;SDS011;57598;50.888;4.746;2023-05-02T13:35:05;20.83;;;19.63;;
21569;SDS011;57598;50.888;4.746;2023-05-02T13:37:33;19.63;;;18.42;;
21569;SDS011;57598;50.888;4.746;2023-05-02T13:40:00;18.60;;;17.50;;
21569;SDS011;57598;50.888;4.746;2023-05-02T13:42:27;20.67;;;18.70;;
21569;SDS011;57598;50.888;4.746;2023-05-02T13:44:56;18.70;;;17.60;;
21569;SDS011;57598;50.888;4.746;2023-05-02T13:47:23;18.90;;;17.73;;
21569;SDS011;57598;50.888;4.746;2023-05-02T13:49:50;17.63;;;16.63;;
21569;SDS011;57598;50.888;4.746;2023-05-02T13:52:17;18.48;;;17.30;;
21569;SDS011;57598;50.888;4.746;2023-05-02T13:54:44;18.45;;;17.35;;
21569;SDS011;57598;50.888;4.746;2023-05-02T13:57:11;18.00;;;17.00;;
21569;SDS011;57598;50.888;4.746;2023-05-02T13:59:38;35.40;;;18.83;;
21569;SDS011;57598;50.888;4.746;2023-05-02T14:02:07;18.98;;;17.77;;
21569;SDS011;57598;50.888;4.746;2023-05-02T14:04:34;19.30;;;18.08;;
21569;SDS011;57598;50.888;4.746;2023-05-02T14:07:01;21.25;;;19.55;;
21569;SDS011;57598;50.888;4.746;2023-05-02T14:09:29;21.08;;;19.10;;
21569;SDS011;57598;50.888;4.746;2023-05-02T14:11:56;17.48;;;16.48;;
21569;SDS011;57598;50.888;4.746;2023-05-02T14:14:23;19.20;;;18.00;;
21569;SDS011;57598;50.888;4.746;2023-05-02T14:16:50;20.50;;;18.98;;
21569;SDS011;57598;50.888;4.746;2023-05-02T14:19:19;18.75;;;17.48;;
21569;SDS011;57598;50.888;4.746;2023-05-02T14:21:46;20.80;;;18.75;;
21569;SDS011;57598;50.888;4.746;2023-05-02T14:24:13;21.10;;;18.63;;
21569;SDS011;57598;50.888;4.746;2023-05-02T14:26:40;18.60;;;17.45;;
21569;SDS011;57598;50.888;4.746;2023-05-02T14:29:07;21.17;;;19.67;;
21569;SDS011;57598;50.888;4.746;2023-05-02T14:31:34;17.65;;;16.65;;
21569;SDS011;57598;50.888;4.746;2023-05-02T14:34:01;18.73;;;17.63;;
21569;SDS011;57598;50.888;4.746;2023-05-02T14:36:29;18.83;;;17.73;;
21569;SDS011;57598;50.888;4.746;2023-05-02T14:38:56;17.20;;;16.20;;
21569;SDS011;57598;50.888;4.746;2023-05-02T14:41:24;20.63;;;18.95;;
21569;SDS011;57598;50.888;4.746;2023-05-02T14:43:51;19.70;;;18.05;;
21569;SDS011;57598;50.888;4.746;2023-05-02T14:46:18;17.70;;;16.70;;
21569;SDS011;57598;50.888;4.746;2023-05-02T14:48:45;18.88;;;17.70;;
21569;SDS011;57598;50.888;4.746;2023-05-02T14:51:12;18.63;;;17.33;;